Time;durP1;ratioP1;P1;durP2;ratioP2;P2;SDS_P1;SDS_P2;PMS_P1;PMS_P2;Temp;Humidity;BMP_temperature;BMP_pressure;BME280_temperature;BME280_humidity;BME280_pressure;Samples;Min_cycle;Max_cycle;Signal;HPM_P1;HPM_P2
2022/06/04 00:00:38;;;;;;;;;;;;;;;21.35;53.11;99347.09;6277971;22;20037;-75
2022/06/04 00:03:04;;;;;;;;;;;;;;;21.34;53.30;99348.13;6251105;22;19919;-75
2022/06/04 00:05:32;;;;;;;;;;;;;;;21.30;53.21;99347.66;6277976;22;19925;-76
2022/06/04 00:07:58;;;;;;;;;;;;;;;21.32;53.46;99344.72;6250675;22;19938;-75
2022/06/04 00:15:56;;;;;;;;;;;;;;;21.36;53.20;99340.63;6250777;22;19969;-75
2022/06/04 00:18:22;;;;;;;;;;;;;;;21.40;53.47;99341.06;6250273;22;19919;-75
2022/06/04 00:20:48;;;;;;;;;;;;;;;21.39;54.10;99340.25;6225293;22;19919;-75
2022/06/04 00:23:14;;;;;;;;;;;;;;;21.38;54.06;99337.72;6278041;22;20339;-76
2022/06/04 00:25:43;;;;;;;;;;;;;;;21.39;53.94;99339.41;6277480;22;19926;-76
2022/06/04 00:28:10;;;;;;;;;;;;;;;21.40;54.22;99330.19;6225370;22;19919;-75
2022/06/04 00:30:36;;;;;;;;;;;;;;;21.39;54.21;99328.53;6224439;22;19973;-76
2022/06/04 00:33:01;;;;;;;;;;;;;;;21.37;54.94;99330.59;6250349;22;19924;-76
2022/06/04 00:35:27;;;;;;;;;;;;;;;21.35;54.50;99338.94;6225038;22;19919;-74
2022/06/04 00:37:54;;;;;;;;;;;;;;;21.36;54.48;99339.78;6225079;22;19919;-76
2022/06/04 00:40:22;;;;;;;;;;;;;;;21.37;54.74;99339.59;6225668;22;19993;-76
2022/06/04 00:42:48;;;;;;;;;;;;;;;21.39;54.65;99340.25;6276233;22;19920;-75
2022/06/04 00:45:32;;;;;;;;;;;;;;;21.38;54.65;99329.56;6277475;22;19919;-76
2022/06/04 00:48:01;;;;;;;;;;;;;;;21.43;54.73;99336.09;6225783;22;20290;-77
2022/06/04 00:50:29;;;;;;;;;;;;;;;21.43;54.52;99341.53;6225674;22;19923;-75
2022/06/04 00:52:55;;;;;;;;;;;;;;;21.43;54.40;99340.69;6250480;22;19973;-75
2022/06/04 00:55:21;;;;;;;;;;;;;;;21.42;54.37;99328.97;6199946;22;19926;-77
2022/06/04 00:57:53;;;;;;;;;;;;;;;21.41;54.25;99324.59;6250180;22;19927;-76
2022/06/04 01:00:22;;;;;;;;;;;;;;;21.38;54.55;99330.41;6225490;22;20298;-76
2022/06/04 01:02:54;;;;;;;;;;;;;;;21.35;54.84;99330.78;6250109;22;19919;-77
2022/06/04 01:05:19;;;;;;;;;;;;;;;21.32;55.19;99329.25;6224450;22;19919;-77
2022/06/04 01:07:54;;;;;;;;;;;;;;;21.28;55.32;99333.38;6224707;22;19985;-75
2022/06/04 01:10:20;;;;;;;;;;;;;;;21.30;55.39;99320.47;6250012;22;19919;-76
2022/06/04 01:12:49;;;;;;;;;;;;;;;21.39;55.42;99318.47;6250413;22;19945;-75
2022/06/04 01:15:26;;;;;;;;;;;;;;;21.46;55.70;99319.41;6250417;22;19926;-75
2022/06/04 01:17:53;;;;;;;;;;;;;;;21.56;55.45;99329.97;6249787;22;19919;-76
2022/06/04 01:20:39;;;;;;;;;;;;;;;21.44;55.59;99326.06;6249617;22;19919;-75
2022/06/04 01:23:07;;;;;;;;;;;;;;;21.42;55.59;99330.88;6224602;22;20465;-75
2022/06/04 01:25:33;;;;;;;;;;;;;;;21.51;55.19;99316.97;6250166;22;19919;-76
2022/06/04 01:28:02;;;;;;;;;;;;;;;21.65;54.83;99322.50;6224689;22;19926;-76
2022/06/04 01:30:34;;;;;;;;;;;;;;;21.77;54.44;99326.38;6227763;22;20011;-76
2022/06/04 01:33:12;;;;;;;;;;;;;;;21.82;53.91;99329.38;6275544;22;19923;-76
2022/06/04 01:35:38;;;;;;;;;;;;;;;21.93;53.79;99323.41;6224630;22;19969;-76
2022/06/04 01:38:13;;;;;;;;;;;;;;;22.05;53.34;99331.88;6275794;22;19923;-77
2022/06/04 01:43:29;;;;;;;;;;;;;;;22.03;53.09;99325.78;6276710;22;19919;-77
2022/06/04 01:45:58;;;;;;;;;;;;;;;22.06;53.23;99328.94;6275301;22;20080;-76
2022/06/04 01:48:26;;;;;;;;;;;;;;;22.07;53.03;99333.34;6250428;22;20017;-75
2022/06/04 01:50:57;;;;;;;;;;;;;;;22.02;52.98;99322.22;6250266;22;19919;-74
2022/06/04 01:53:27;;;;;;;;;;;;;;;22.19;52.76;99327.38;6277229;22;20246;-75
2022/06/04 01:55:56;;;;;;;;;;;;;;;22.30;52.77;99322.25;6224934;22;20298;-76
2022/06/04 01:58:24;;;;;;;;;;;;;;;22.54;52.64;99323.66;6275517;22;20324;-78
2022/06/04 02:01:12;;;;;;;;;;;;;;;22.80;51.95;99322.13;6276627;22;19934;-76
2022/06/04 02:03:42;;;;;;;;;;;;;;;22.92;51.27;99319.69;6224830;22;19942;-76
2022/06/04 02:06:11;;;;;;;;;;;;;;;23.03;51.09;99321.84;6249782;22;19923;-76
2022/06/04 02:08:40;;;;;;;;;;;;;;;23.07;50.70;99322.28;6224332;22;19994;-78
2022/06/04 02:11:10;;;;;;;;;;;;;;;22.89;50.54;99317.34;6275183;22;20068;-76
2022/06/04 02:13:36;;;;;;;;;;;;;;;22.85;50.86;99325.06;6224712;22;19919;-78
2022/06/04 02:16:08;;;;;;;;;;;;;;;22.84;50.69;99323.41;6250158;22;19923;-77
2022/06/04 02:18:34;;;;;;;;;;;;;;;22.95;50.65;99316.56;6275660;22;19922;-79
2022/06/04 02:21:01;;;;;;;;;;;;;;;22.94;50.98;99323.91;6277337;22;19925;-77
2022/06/04 02:23:29;;;;;;;;;;;;;;;22.98;50.86;99325.19;6274885;22;20054;-78
2022/06/04 02:25:56;;;;;;;;;;;;;;;23.03;51.25;99325.41;6231021;22;19926;-87
2022/06/04 02:28:21;;;;;;;;;;;;;;;23.16;51.39;99331.94;6264717;22;19926;-87
2022/06/04 02:30:50;;;;;;;;;;;;;;;23.13;51.29;99335.06;6286985;22;19919;-80
2022/06/04 02:33:23;;;;;;;;;;;;;;;23.03;51.64;99344.50;6235965;22;20092;-80
2022/06/04 02:35:54;;;;;;;;;;;;;;;22.85;52.05;99352.34;6278035;22;19919;-84
2022/06/04 02:38:27;;;;;;;;;;;;;;;22.53;54.05;99357.41;6249805;22;19965;-79
2022/06/04 02:40:56;;;;;;;;;;;;;;;22.24;53.57;99373.94;6250657;22;20331;-79
2022/06/04 02:43:34;;;;;;;;;;;;;;;22.30;52.83;99397.66;6224754;22;19961;-77
2022/06/04 02:46:04;;;;;;;;;;;;;;;22.14;52.93;99398.78;6250199;22;19923;-84
2022/06/04 02:48:34;;;;;;;;;;;;;;;22.32;53.08;99403.75;6249680;22;20389;-81
2022/06/04 02:51:10;;;;;;;;;;;;;;;22.43;52.24;99405.94;6200056;22;19919;-86
2022/06/04 02:53:36;;;;;;;;;;;;;;;22.63;52.01;99407.97;6252371;22;19927;-84
2022/06/04 02:56:05;;;;;;;;;;;;;;;22.22;51.58;99403.22;6250215;22;19947;-77
2022/06/04 02:58:31;;;;;;;;;;;;;;;21.72;54.46;99413.19;6249548;22;19990;-76
2022/06/04 03:00:58;;;;;;;;;;;;;;;21.71;53.85;99408.81;6224119;22;19969;-78
2022/06/04 03:03:24;;;;;;;;;;;;;;;21.29;55.60;99426.69;6249369;22;20343;-78
2022/06/04 03:05:58;;;;;;;;;;;;;;;21.21;55.77;99410.47;6249409;22;19919;-75
2022/06/04 03:08:25;;;;;;;;;;;;;;;21.18;56.31;99416.31;6224517;22;19950;-79
2022/06/04 03:10:51;;;;;;;;;;;;;;;21.12;56.97;99426.03;6223856;22;20069;-80
2022/06/04 03:13:17;;;;;;;;;;;;;;;20.99;57.25;99424.00;6199039;22;20334;-75
2022/06/04 03:15:43;;;;;;;;;;;;;;;20.72;58.33;99432.78;6275549;22;20049;-79
2022/06/04 03:18:09;;;;;;;;;;;;;;;20.51;59.62;99422.66;6249518;22;20258;-76
2022/06/04 03:20:34;;;;;;;;;;;;;;;20.45;60.00;99423.34;6274867;22;19986;-76
2022/06/04 03:23:00;;;;;;;;;;;;;;;20.14;61.48;99427.84;6199305;22;19955;-78
2022/06/04 03:25:26;;;;;;;;;;;;;;;19.90;62.82;99430.78;6251587;22;19923;-83
2022/06/04 03:27:53;;;;;;;;;;;;;;;19.84;62.45;99434.19;6226135;22;19926;-89
2022/06/04 03:30:18;;;;;;;;;;;;;;;19.78;63.26;99427.66;6227809;22;20247;-81
2022/06/04 03:32:44;;;;;;;;;;;;;;;19.98;63.55;99432.59;6226142;22;19923;-82
2022/06/04 03:35:10;;;;;;;;;;;;;;;20.09;63.58;99435.72;6251390;22;20317;-90
2022/06/04 03:37:36;;;;;;;;;;;;;;;20.32;62.80;99438.41;6251980;22;19923;-86
2022/06/04 03:40:03;;;;;;;;;;;;;;;20.39;63.13;99430.38;6280178;22;19919;-87
2022/06/04 03:42:29;;;;;;;;;;;;;;;20.37;63.20;99440.56;6227993;22;19919;-78
2022/06/04 03:44:55;;;;;;;;;;;;;;;20.16;63.01;99434.97;6251038;22;20357;-84
2022/06/04 03:47:20;;;;;;;;;;;;;;;20.08;64.13;99428.59;6226475;22;19957;-76
2022/06/04 03:49:46;;;;;;;;;;;;;;;20.01;65.09;99453.91;6276853;22;19930;-76
2022/06/04 03:52:13;;;;;;;;;;;;;;;19.76;66.23;99445.13;6250939;22;19969;-77
2022/06/04 03:54:55;;;;;;;;;;;;;;;19.74;65.85;99447.16;6277985;22;19919;-75
2022/06/04 04:00:14;;;;;;;;;;;;;;;19.93;66.35;99434.97;6251305;22;19926;-76
2022/06/04 04:02:44;;;;;;;;;;;;;;;19.76;66.41;99434.25;6251943;22;20396;-77
2022/06/04 04:05:12;;;;;;;;;;;;;;;19.82;66.15;99422.66;6250618;22;19920;-76
2022/06/04 04:07:39;;;;;;;;;;;;;;;19.79;65.53;99417.63;6250564;22;19919;-75
2022/06/04 04:10:06;;;;;;;;;;;;;;;19.79;65.92;99420.34;6226065;22;19919;-77
2022/06/04 04:12:31;;;;;;;;;;;;;;;19.95;65.65;99417.50;6250825;22;20335;-76
2022/06/04 04:14:57;;;;;;;;;;;;;;;20.12;64.79;99421.78;6250794;22;19926;-76
2022/06/04 04:17:23;;;;;;;;;;;;;;;20.34;64.16;99413.78;6225466;22;19925;-77
2022/06/04 04:19:49;;;;;;;;;;;;;;;20.60;63.51;99416.94;6225428;22;20339;-76
2022/06/04 04:22:15;;;;;;;;;;;;;;;20.61;63.26;99420.50;6250754;22;20025;-76
2022/06/04 04:24:41;;;;;;;;;;;;;;;20.69;63.39;99430.47;6277715;22;19919;-76
2022/06/04 04:27:07;;;;;;;;;;;;;;;20.71;64.48;99423.78;6225082;22;19982;-76
2022/06/04 04:29:33;;;;;;;;;;;;;;;20.53;64.59;99424.13;6250375;22;19922;-77
2022/06/04 04:31:58;;;;;;;;;;;;;;;20.44;64.77;99433.38;6276188;22;19923;-78
2022/06/04 04:34:24;;;;;;;;;;;;;;;20.51;64.72;99431.63;6224504;22;20006;-79
2022/06/04 04:36:50;;;;;;;;;;;;;;;20.66;64.26;99433.53;6225039;22;19993;-77
2022/06/04 04:39:15;;;;;;;;;;;;;;;20.78;64.33;99432.88;6225049;22;19935;-86
2022/06/04 04:41:41;;;;;;;;;;;;;;;21.07;63.96;99433.94;6225318;22;19926;-77
2022/06/04 04:44:07;;;;;;;;;;;;;;;21.14;62.98;99436.72;6277379;22;20299;-77
2022/06/04 04:46:33;;;;;;;;;;;;;;;21.15;62.52;99441.16;6224324;22;20294;-76
2022/06/04 04:48:59;;;;;;;;;;;;;;;21.17;62.15;99436.34;6250458;22;19919;-76
2022/06/04 04:51:26;;;;;;;;;;;;;;;21.13;62.50;99437.75;6224948;22;19919;-76
2022/06/04 04:53:52;;;;;;;;;;;;;;;21.43;62.40;99425.00;6225110;22;19931;-76
2022/06/04 04:56:20;;;;;;;;;;;;;;;21.57;61.14;99435.00;6224757;22;19944;-77
2022/06/04 04:58:46;;;;;;;;;;;;;;;21.82;61.41;99432.78;6250127;22;20401;-78
2022/06/04 05:01:22;;;;;;;;;;;;;;;21.87;61.17;99441.19;6277268;22;19919;-77
2022/06/04 05:03:48;;;;;;;;;;;;;;;22.06;60.73;99437.84;6225074;22;19939;-76
2022/06/04 05:06:15;;;;;;;;;;;;;;;22.13;60.32;99426.19;6278876;22;19926;-75
2022/06/04 05:08:41;;;;;;;;;;;;;;;22.28;60.11;99432.41;6228693;22;19998;-77
2022/06/04 05:11:08;;;;;;;;;;;;;;;22.46;59.40;99432.78;6227481;22;19920;-74
2022/06/04 05:13:34;;;;;;;;;;;;;;;22.50;58.50;99430.50;6225478;22;19947;-76
2022/06/04 05:16:00;;;;;;;;;;;;;;;22.43;58.45;99425.00;6277221;22;19919;-76
2022/06/04 05:18:25;;;;;;;;;;;;;;;22.63;58.21;99429.75;6250210;22;19930;-76
2022/06/04 05:20:51;;;;;;;;;;;;;;;22.84;57.77;99420.69;6249910;22;19927;-77
2022/06/04 05:23:17;;;;;;;;;;;;;;;23.02;57.38;99408.25;6225064;22;19968;-77
2022/06/04 05:25:44;;;;;;;;;;;;;;;22.97;56.78;99405.25;6199618;22;19925;-79
2022/06/04 05:28:09;;;;;;;;;;;;;;;22.82;57.00;99407.25;6224934;22;19919;-77
2022/06/04 05:30:35;;;;;;;;;;;;;;;23.08;57.35;99397.56;6249848;22;19926;-77
2022/06/04 05:33:02;;;;;;;;;;;;;;;23.40;56.37;99398.75;6250073;22;19924;-78
2022/06/04 05:35:27;;;;;;;;;;;;;;;23.63;56.28;99392.94;6225403;22;19926;-78
2022/06/04 05:37:53;;;;;;;;;;;;;;;23.77;55.37;99391.97;6275472;22;19994;-78
2022/06/04 05:40:19;;;;;;;;;;;;;;;23.92;54.66;99387.16;6277238;22;19919;-77
2022/06/04 05:42:45;;;;;;;;;;;;;;;24.10;54.98;99383.81;6249637;22;19998;-78
2022/06/04 05:45:10;;;;;;;;;;;;;;;24.23;54.34;99389.28;6249298;22;19919;-77
2022/06/04 05:47:36;;;;;;;;;;;;;;;24.40;54.72;99394.34;6276487;22;20305;-79
2022/06/04 05:50:02;;;;;;;;;;;;;;;24.54;54.78;99384.25;6200033;22;19919;-77
2022/06/04 05:52:28;;;;;;;;;;;;;;;24.69;54.82;99391.16;6224695;22;19925;-77
2022/06/04 05:54:54;;;;;;;;;;;;;;;24.77;54.56;99392.81;6224256;22;20317;-78
2022/06/04 05:57:20;;;;;;;;;;;;;;;24.35;55.88;99386.75;6250194;22;19926;-79
2022/06/04 05:59:45;;;;;;;;;;;;;;;24.32;55.87;99391.78;6224110;22;20259;-78
2022/06/04 06:02:11;;;;;;;;;;;;;;;24.27;55.09;99394.31;6224309;22;19926;-79
2022/06/04 06:04:37;;;;;;;;;;;;;;;24.21;55.48;99402.28;6224983;22;20323;-78
2022/06/04 06:07:03;;;;;;;;;;;;;;;24.26;55.01;99398.97;6199311;22;19919;-78
2022/06/04 06:09:29;;;;;;;;;;;;;;;24.20;54.86;99400.63;6251991;22;20335;-77
2022/06/04 06:11:55;;;;;;;;;;;;;;;23.99;55.67;99404.38;6249727;22;19919;-78
2022/06/04 06:14:21;;;;;;;;;;;;;;;23.99;56.21;99411.72;6224228;22;19951;-77
2022/06/04 06:16:48;;;;;;;;;;;;;;;24.05;55.75;99412.78;6250341;22;20262;-78
2022/06/04 06:19:15;;;;;;;;;;;;;;;24.02;55.63;99424.13;6200082;22;20282;-78
2022/06/04 06:21:41;;;;;;;;;;;;;;;23.96;56.24;99426.66;6202273;22;19923;-78
2022/06/04 06:24:08;;;;;;;;;;;;;;;23.70;56.74;99434.78;6276582;22;19919;-79
2022/06/04 06:26:39;;;;;;;;;;;;;;;23.20;57.47;99442.28;6249674;22;19969;-77
2022/06/04 06:29:05;;;;;;;;;;;;;;;22.70;58.84;99447.00;6224912;22;20289;-78
2022/06/04 06:31:31;;;;;;;;;;;;;;;22.81;58.66;99449.16;6277139;22;19957;-78
2022/06/04 06:33:56;;;;;;;;;;;;;;;22.89;58.75;99459.06;6224633;22;19942;-79
2022/06/04 06:36:25;;;;;;;;;;;;;;;22.85;58.35;99472.25;6277556;22;19946;-76
2022/06/04 06:38:51;;;;;;;;;;;;;;;22.66;59.20;99464.78;6186992;23;19995;-78
2022/06/04 06:41:19;;;;;;;;;;;;;;;22.54;59.22;99450.88;6162927;23;20410;-78
2022/06/04 06:43:47;;;;;;;;;;;;;;;22.58;59.47;99448.59;6213449;23;19920;-78
2022/06/04 06:46:15;;;;;;;;;;;;;;;22.55;59.97;99467.00;6187066;23;19920;-78
2022/06/04 06:48:41;;;;;;;;;;;;;;;22.44;60.15;99478.44;6211575;23;19966;-79
2022/06/04 06:51:12;;;;;;;;;;;;;;;22.35;60.74;99485.06;6186277;23;20466;-78
2022/06/04 06:53:38;;;;;;;;;;;;;;;22.33;60.53;99484.41;6137038;23;20010;-78
2022/06/04 06:56:11;;;;;;;;;;;;;;;22.27;61.22;99483.31;6187090;23;19920;-79
2022/06/04 06:58:37;;;;;;;;;;;;;;;22.23;61.56;99473.84;6212678;23;19959;-78
2022/06/04 07:01:03;;;;;;;;;;;;;;;22.23;61.88;99481.19;6213759;23;19966;-78
2022/06/04 07:03:28;;;;;;;;;;;;;;;22.11;62.63;99469.06;6188636;23;19955;-79
2022/06/04 07:05:55;;;;;;;;;;;;;;;22.25;62.69;99479.09;6190101;23;19920;-79
2022/06/04 07:08:21;;;;;;;;;;;;;;;22.03;63.61;99473.59;6213385;23;19959;-78
2022/06/04 07:10:47;;;;;;;;;;;;;;;22.14;61.95;99468.72;6188612;23;19923;-79
2022/06/04 07:13:13;;;;;;;;;;;;;;;22.29;61.65;99451.28;6213374;23;20383;-79
2022/06/04 07:15:38;;;;;;;;;;;;;;;22.39;60.66;99456.41;6178299;22;19919;-78
2022/06/04 07:18:04;;;;;;;;;;;;;;;22.28;60.30;99465.09;6225369;22;20228;-77
2022/06/04 07:20:30;;;;;;;;;;;;;;;22.18;60.61;99470.00;6277890;22;20342;-78
2022/06/04 07:22:56;;;;;;;;;;;;;;;21.68;60.73;99459.00;6250885;22;19977;-78
2022/06/04 07:25:21;;;;;;;;;;;;;;;21.49;61.74;99454.16;6225778;22;20358;-77
2022/06/04 07:27:47;;;;;;;;;;;;;;;21.52;62.15;99454.63;6225486;22;19998;-79
2022/06/04 07:30:13;;;;;;;;;;;;;;;21.57;62.48;99441.28;6251190;22;19919;-78
2022/06/04 07:32:40;;;;;;;;;;;;;;;21.78;62.00;99436.94;6276791;22;20259;-78
2022/06/04 07:35:06;;;;;;;;;;;;;;;22.06;61.82;99451.44;6251819;22;19925;-79
2022/06/04 07:37:31;;;;;;;;;;;;;;;22.25;61.45;99447.25;6278223;22;19958;-77
2022/06/04 07:39:57;;;;;;;;;;;;;;;22.31;60.89;99440.19;6251041;22;19919;-78
2022/06/04 07:42:23;;;;;;;;;;;;;;;22.49;60.52;99437.84;6278001;22;19919;-78
2022/06/04 07:44:49;;;;;;;;;;;;;;;22.61;59.55;99429.97;6226216;22;20056;-79
2022/06/04 07:47:15;;;;;;;;;;;;;;;22.73;59.26;99424.81;6276155;22;19923;-76
2022/06/04 07:49:41;;;;;;;;;;;;;;;23.00;58.83;99423.09;6251234;22;19982;-76
2022/06/04 07:52:06;;;;;;;;;;;;;;;23.18;58.24;99428.88;6251301;22;19930;-78
2022/06/04 07:54:34;;;;;;;;;;;;;;;23.39;58.13;99422.44;6276319;22;19919;-79
2022/06/04 07:57:00;;;;;;;;;;;;;;;23.24;57.74;99429.94;6277840;22;19926;-78
2022/06/04 07:59:26;;;;;;;;;;;;;;;23.68;57.76;99424.06;6251459;22;19919;-82
2022/06/04 08:01:51;;;;;;;;;;;;;;;24.20;56.30;99418.91;6250115;22;20312;-79
2022/06/04 08:04:17;;;;;;;;;;;;;;;24.62;56.23;99425.03;6275808;22;19919;-76
2022/06/04 08:06:44;;;;;;;;;;;;;;;24.72;55.63;99409.03;6275368;22;20030;-78
2022/06/04 08:09:10;;;;;;;;;;;;;;;24.71;55.38;99413.66;6249130;22;20287;-77
2022/06/04 08:11:35;;;;;;;;;;;;;;;24.51;55.53;99417.47;6275339;22;19934;-80
2022/06/04 08:14:07;;;;;;;;;;;;;;;24.07;56.29;99419.75;6276200;22;19942;-76
2022/06/04 08:16:35;;;;;;;;;;;;;;;23.70;57.58;99412.94;6250802;22;19925;-78
2022/06/04 08:19:00;;;;;;;;;;;;;;;23.37;58.71;99416.38;6275747;22;19919;-76
2022/06/04 08:21:26;;;;;;;;;;;;;;;23.19;60.07;99414.19;6249927;22;19998;-76
2022/06/04 08:23:52;;;;;;;;;;;;;;;23.06;60.52;99407.84;6274897;22;19927;-77
2022/06/04 08:26:17;;;;;;;;;;;;;;;23.08;60.97;99403.00;6250159;22;19933;-77
2022/06/04 08:28:43;;;;;;;;;;;;;;;23.00;61.11;99401.31;6250420;22;19919;-78
2022/06/04 08:31:10;;;;;;;;;;;;;;;22.89;61.33;99401.84;6249174;22;19999;-78
2022/06/04 08:33:36;;;;;;;;;;;;;;;22.75;61.25;99407.22;6199651;22;20374;-77
2022/06/04 08:36:03;;;;;;;;;;;;;;;22.64;61.95;99399.59;6275927;22;19966;-77
2022/06/04 08:38:29;;;;;;;;;;;;;;;22.64;62.54;99393.28;6225014;22;19919;-78
2022/06/04 08:40:56;;;;;;;;;;;;;;;22.45;62.94;99392.09;6249782;22;20052;-78
2022/06/04 08:43:22;;;;;;;;;;;;;;;22.49;63.04;99391.53;6250289;22;19923;-77
2022/06/04 08:45:48;;;;;;;;;;;;;;;22.52;62.82;99393.84;6225464;22;20354;-77
2022/06/04 08:48:16;;;;;;;;;;;;;;;22.71;62.50;99386.00;6226120;22;19989;-78
2022/06/04 08:50:43;;;;;;;;;;;;;;;22.74;62.36;99388.31;6200017;22;20224;-77
2022/06/04 08:53:13;;;;;;;;;;;;;;;22.85;62.40;99395.09;6200452;22;20259;-78
2022/06/04 08:58:57;;;;;;;;;;;;;;;23.17;61.19;99385.44;6225215;22;20319;-77
2022/06/04 09:01:26;;;;;;;;;;;;;;;23.19;61.17;99380.63;6275721;22;19919;-78
2022/06/04 09:03:57;;;;;;;;;;;;;;;23.12;59.43;99379.75;6276937;22;20307;-78
2022/06/04 09:06:29;;;;;;;;;;;;;;;23.00;59.23;99387.66;6275712;22;20005;-78
2022/06/04 09:08:54;;;;;;;;;;;;;;;22.87;59.41;99384.81;6250386;22;19926;-78
2022/06/04 09:11:25;;;;;;;;;;;;;;;22.84;59.43;99380.63;6224616;22;19993;-78
2022/06/04 09:14:01;;;;;;;;;;;;;;;22.72;59.51;99395.88;6199669;22;19926;-77
2022/06/04 09:16:36;;;;;;;;;;;;;;;22.59;60.22;99396.63;6250365;22;19954;-77
2022/06/04 09:19:04;;;;;;;;;;;;;;;22.43;60.43;99391.47;6199366;22;19919;-77
2022/06/04 09:21:37;;;;;;;;;;;;;;;22.47;60.47;99387.31;6249781;22;19919;-77
2022/06/04 09:24:04;;;;;;;;;;;;;;;22.57;60.35;99378.78;6249884;22;20017;-78
2022/06/04 09:26:38;;;;;;;;;;;;;;;22.62;60.12;99384.47;6250072;22;19973;-77
2022/06/04 09:29:19;;;;;;;;;;;;;;;22.54;60.44;99386.31;6250684;22;19923;-78
2022/06/04 09:32:03;;;;;;;;;;;;;;;22.24;61.50;99387.56;6244065;22;19919;-79
2022/06/04 09:34:36;;;;;;;;;;;;;;;22.39;61.91;99380.13;6199732;22;20303;-77
2022/06/04 09:37:02;;;;;;;;;;;;;;;22.33;61.64;99380.06;6225057;22;19969;-78
2022/06/04 09:39:30;;;;;;;;;;;;;;;22.45;62.02;99381.22;6224978;22;20289;-78
2022/06/04 09:41:58;;;;;;;;;;;;;;;22.54;61.80;99378.16;6224496;22;19994;-79
2022/06/04 09:44:25;;;;;;;;;;;;;;;22.64;61.54;99366.03;6249874;22;19925;-77
2022/06/04 09:46:54;;;;;;;;;;;;;;;22.67;61.60;99366.47;6199404;22;19920;-78
2022/06/04 09:49:29;;;;;;;;;;;;;;;22.88;61.41;99364.72;6199241;22;19968;-77
2022/06/04 09:51:55;;;;;;;;;;;;;;;23.04;60.10;99367.13;6224391;22;19926;-77
2022/06/04 09:54:24;;;;;;;;;;;;;;;23.22;59.80;99356.53;6276615;22;19990;-77
2022/06/04 09:56:55;;;;;;;;;;;;;;;23.15;59.22;99363.00;6249797;22;20002;-77
2022/06/04 09:59:28;;;;;;;;;;;;;;;23.07;58.58;99366.72;6276670;22;19969;-76
2022/06/04 10:01:57;;;;;;;;;;;;;;;22.96;58.98;99361.84;6224011;22;19973;-78
2022/06/04 10:04:23;;;;;;;;;;;;;;;22.87;58.91;99369.34;6199750;22;19919;-76
2022/06/04 10:06:50;;;;;;;;;;;;;;;22.76;59.15;99367.19;6199855;22;20297;-78
2022/06/04 10:12:03;;;;;;;;;;;;;;;22.55;59.98;99357.19;6224229;22;19961;-79
2022/06/04 10:14:30;;;;;;;;;;;;;;;22.48;60.10;99357.13;6250380;22;19919;-78
2022/06/04 10:16:56;;;;;;;;;;;;;;;22.45;60.54;99352.09;6277302;22;19953;-77
2022/06/04 10:19:22;;;;;;;;;;;;;;;22.36;60.30;99347.84;6249704;22;19926;-79
2022/06/04 10:21:49;;;;;;;;;;;;;;;22.50;59.89;99343.34;6249312;22;19950;-77
2022/06/04 10:24:23;;;;;;;;;;;;;;;22.89;59.86;99342.72;6199001;22;20014;-78
2022/06/04 10:27:01;;;;;;;;;;;;;;;23.38;58.88;99338.94;6223972;22;20342;-77
2022/06/04 10:29:30;;;;;;;;;;;;;;;23.79;57.83;99338.00;6199414;22;19923;-77
2022/06/04 10:32:14;;;;;;;;;;;;;;;24.31;56.13;99338.22;6210868;22;19990;-76
2022/06/04 10:35:03;;;;;;;;;;;;;;;24.97;54.80;99340.81;6225631;22;19923;-76
2022/06/04 10:37:48;;;;;;;;;;;;;;;25.70;53.01;99335.00;6184128;22;19965;-77
2022/06/04 10:40:13;;;;;;;;;;;;;;;26.58;50.92;99336.81;6226254;22;19966;-78
2022/06/04 10:42:42;;;;;;;;;;;;;;;27.12;48.55;99332.44;6278389;22;19919;-77
2022/06/04 10:45:40;;;;;;;;;;;;;;;27.11;47.50;99331.59;6251003;22;19926;-77
2022/06/04 10:48:11;;;;;;;;;;;;;;;26.81;48.33;99336.97;6201321;22;20311;-76
2022/06/04 10:53:52;;;;;;;;;;;;;;;26.76;47.66;99328.59;6225907;22;19926;-77
2022/06/04 10:56:23;;;;;;;;;;;;;;;26.00;48.53;99334.38;6251698;22;20035;-77
2022/06/04 10:58:59;;;;;;;;;;;;;;;25.70;50.05;99329.53;6251575;22;19919;-77
2022/06/04 11:01:35;;;;;;;;;;;;;;;25.89;49.96;99333.22;6201283;22;19919;-76
2022/06/04 11:04:24;;;;;;;;;;;;;;;25.57;50.45;99326.84;6251158;22;19954;-77
2022/06/04 11:06:53;;;;;;;;;;;;;;;25.26;51.81;99319.47;6251977;22;19980;-77
2022/06/04 11:09:21;;;;;;;;;;;;;;;25.14;51.92;99327.53;6278194;22;19926;-77
2022/06/04 11:11:50;;;;;;;;;;;;;;;24.99;51.91;99326.94;6276603;22;20014;-77
2022/06/04 11:14:21;;;;;;;;;;;;;;;24.85;52.10;99326.97;6225615;22;19919;-76
2022/06/04 11:16:56;;;;;;;;;;;;;;;24.67;52.96;99326.81;6226077;22;19985;-77
2022/06/04 11:19:35;;;;;;;;;;;;;;;24.54;53.31;99326.88;6250899;22;19919;-77
2022/06/04 11:22:19;;;;;;;;;;;;;;;24.36;53.94;99319.28;6225729;22;19919;-78
2022/06/04 11:24:49;;;;;;;;;;;;;;;24.16;54.59;99309.22;6251339;22;20331;-78
2022/06/04 11:27:19;;;;;;;;;;;;;;;23.94;55.66;99308.59;6200978;22;19934;-78
2022/06/04 11:29:47;;;;;;;;;;;;;;;23.92;55.38;99316.19;6227617;22;19970;-78
2022/06/04 11:32:22;;;;;;;;;;;;;;;23.93;55.57;99312.41;6250891;22;19923;-78
2022/06/04 11:34:57;;;;;;;;;;;;;;;23.93;56.47;99320.59;6226410;22;19925;-78
2022/06/04 11:37:43;;;;;;;;;;;;;;;24.02;56.99;99318.47;6201831;22;20271;-78
2022/06/04 11:40:09;;;;;;;;;;;;;;;23.98;57.39;99307.13;6201816;22;19926;-78
2022/06/04 11:42:39;;;;;;;;;;;;;;;23.86;57.60;99311.56;6232010;22;19919;-78
2022/06/04 11:45:23;;;;;;;;;;;;;;;23.81;58.65;99305.91;6206543;22;20336;-78
2022/06/04 11:48:05;;;;;;;;;;;;;;;23.87;58.72;99313.22;6232972;22;19961;-78
2022/06/04 11:50:34;;;;;;;;;;;;;;;24.01;58.44;99305.03;6206554;22;19926;-78
2022/06/04 11:53:10;;;;;;;;;;;;;;;24.42;58.30;99311.13;6203058;22;19919;-78
2022/06/04 11:55:46;;;;;;;;;;;;;;;24.63;57.23;99303.69;6250792;22;19926;-78
2022/06/04 11:58:22;;;;;;;;;;;;;;;24.55;56.38;99303.94;6201851;22;20243;-77
2022/06/04 12:00:49;;;;;;;;;;;;;;;24.53;56.40;99306.91;6226768;22;19919;-76
2022/06/04 12:03:18;;;;;;;;;;;;;;;24.31;56.67;99302.72;6251792;22;19919;-78
2022/06/04 12:05:57;;;;;;;;;;;;;;;24.24;57.42;99300.81;6254044;22;19965;-76
2022/06/04 12:08:25;;;;;;;;;;;;;;;23.86;57.80;99300.63;6251895;22;19919;-78
2022/06/04 12:11:01;;;;;;;;;;;;;;;23.62;59.01;99295.75;6250900;22;19919;-77
2022/06/04 12:13:47;;;;;;;;;;;;;;;23.44;59.49;99296.38;6200776;22;19951;-78
2022/06/04 12:16:18;;;;;;;;;;;;;;;23.57;59.61;99290.09;6224736;22;19919;-77
2022/06/04 12:18:44;;;;;;;;;;;;;;;23.44;59.98;99285.47;6225323;22;19942;-77
2022/06/04 12:24:31;;;;;;;;;;;;;;;23.26;61.39;99288.78;6250407;22;19919;-77
2022/06/04 12:27:05;;;;;;;;;;;;;;;23.16;61.98;99288.31;6277242;22;20294;-77
2022/06/04 12:29:35;;;;;;;;;;;;;;;23.18;61.82;99286.22;6250400;22;20255;-78
2022/06/04 12:32:06;;;;;;;;;;;;;;;23.16;61.45;99282.84;6263885;22;19923;-78
2022/06/04 12:34:32;;;;;;;;;;;;;;;23.18;61.66;99286.22;6199776;22;19925;-78
2022/06/04 12:36:58;;;;;;;;;;;;;;;23.11;61.37;99274.47;6277332;22;19919;-78
2022/06/04 12:39:35;;;;;;;;;;;;;;;22.95;61.78;99264.78;6199384;22;19919;-77
2022/06/04 12:42:10;;;;;;;;;;;;;;;22.94;62.15;99253.03;6224803;22;20264;-77
2022/06/04 12:44:36;;;;;;;;;;;;;;;22.98;62.53;99253.44;6224987;22;20243;-78
2022/06/04 12:47:22;;;;;;;;;;;;;;;22.81;63.08;99242.03;6275607;22;19919;-78
2022/06/04 12:49:52;;;;;;;;;;;;;;;22.85;63.32;99247.94;6199387;22;19926;-77
2022/06/04 12:52:26;;;;;;;;;;;;;;;22.94;62.91;99242.13;6224331;22;19998;-77
2022/06/04 12:54:57;;;;;;;;;;;;;;;22.95;62.20;99238.34;6251041;22;19923;-79
2022/06/04 12:57:30;;;;;;;;;;;;;;;22.81;62.14;99235.75;6276827;22;19919;-77
2022/06/04 13:00:08;;;;;;;;;;;;;;;22.82;62.21;99246.44;6199966;22;19919;-79
2022/06/04 13:02:35;;;;;;;;;;;;;;;22.80;62.17;99251.28;6224784;22;19981;-78
2022/06/04 13:05:13;;;;;;;;;;;;;;;22.69;61.75;99244.53;6199651;22;19965;-78
2022/06/04 13:07:46;;;;;;;;;;;;;;;22.52;62.63;99248.63;6199736;22;20006;-78
2022/06/04 13:10:28;;;;;;;;;;;;;;;22.51;62.35;99247.78;6250292;22;19927;-78
2022/06/04 13:12:59;;;;;;;;;;;;;;;22.51;62.31;99241.50;6276782;22;19943;-77
2022/06/04 13:15:28;;;;;;;;;;;;;;;22.48;62.71;99242.72;6224898;22;20363;-77
2022/06/04 13:17:54;;;;;;;;;;;;;;;22.37;63.29;99243.31;6249516;22;19931;-79
2022/06/04 13:20:26;;;;;;;;;;;;;;;22.25;63.60;99229.41;6224749;22;20008;-78